Time;durP1;ratioP1;P1;durP2;ratioP2;P2;SDS_P1;SDS_P2;PMS_P1;PMS_P2;Temp;Humidity;BMP_temperature;BMP_pressure;BME280_temperature;BME280_humidity;BME280_pressure;Samples;Min_cycle;Max_cycle;Signal;HPM_P1;HPM_P2
2022/01/24 00:02:09;;;;;;;17.23;9.13;;;2.60;99.90;;;;;;5076191;28;20033;-66
2022/01/24 00:04:54;;;;;;;22.02;9.10;;;2.60;99.90;;;;;;5058170;28;20029;-66
2022/01/24 00:07:22;;;;;;;22.02;10.00;;;2.70;99.90;;;;;;5076045;28;20032;-66
2022/01/24 00:09:49;;;;;;;22.50;9.68;;;2.60;99.90;;;;;;5076044;28;20082;-66
2022/01/24 00:12:25;;;;;;;22.50;10.32;;;2.70;99.90;;;;;;5075943;28;20033;-66
2022/01/24 00:28:15;;;;;;;23.40;10.15;;;2.70;99.90;;;;;;5075480;28;20479;-66
2022/01/24 00:30:40;;;;;;;26.55;11.50;;;2.70;99.90;;;;;;5057192;28;20029;-66
2022/01/24 00:33:06;;;;;;;26.80;10.60;;;2.70;99.90;;;;;;5075541;28;20078;-66
2022/01/24 00:35:32;;;;;;;25.27;10.27;;;2.70;99.90;;;;;;5075758;28;20484;-66
2022/01/24 00:38:01;;;;;;;25.67;11.25;;;2.70;99.90;;;;;;5075458;28;20029;-66
2022/01/24 00:40:28;;;;;;;20.98;10.95;;;2.80;99.90;;;;;;5057498;28;20031;-66
2022/01/24 00:42:58;;;;;;;24.55;11.85;;;2.80;99.90;;;;;;5057354;28;20025;-65
2022/01/24 00:55:58;;;;;;;25.27;11.15;;;2.70;99.90;;;;;;5075042;28;20032;-65
2022/01/24 00:58:24;;;;;;;23.08;10.52;;;2.70;99.90;;;;;;5075037;28;20029;-66
2022/01/24 01:00:50;;;;;;;25.42;10.98;;;2.70;99.90;;;;;;5074717;28;20031;-66
2022/01/24 01:03:17;;;;;;;24.33;10.32;;;2.70;99.90;;;;;;5075015;28;20059;-66
2022/01/24 01:19:21;;;;;;;29.50;10.93;;;2.80;99.90;;;;;;5074628;28;20044;-66
2022/01/24 01:21:46;;;;;;;19.60;10.52;;;2.70;99.90;;;;;;5074747;28;20073;-66
2022/01/24 01:24:13;;;;;;;18.92;9.55;;;2.70;99.90;;;;;;5074524;28;20103;-66
2022/01/24 01:26:45;;;;;;;22.17;10.40;;;2.80;99.90;;;;;;5056692;28;20047;-66
2022/01/24 01:29:27;;;;;;;21.05;10.55;;;2.80;99.90;;;;;;5074417;28;20059;-66
2022/01/24 01:32:21;;;;;;;23.45;10.48;;;2.70;99.90;;;;;;5074481;28;20029;-66
2022/01/24 01:54:18;;;;;;;19.50;9.23;;;2.70;99.90;;;;;;4992972;28;20076;-66
2022/01/24 01:56:44;;;;;;;21.33;9.90;;;2.70;99.90;;;;;;5034546;28;20044;-66
2022/01/24 01:59:09;;;;;;;22.52;9.75;;;2.70;99.90;;;;;;5074063;28;20078;-66
2022/01/24 02:01:36;;;;;;;22.48;10.50;;;2.80;99.90;;;;;;5073901;28;20078;-66
2022/01/24 02:04:04;;;;;;;23.17;10.23;;;2.70;99.90;;;;;;5074193;28;20518;-66
2022/01/24 02:06:31;;;;;;;27.48;11.10;;;2.60;99.90;;;;;;5073925;28;20025;-66
2022/01/24 02:09:02;;;;;;;24.73;9.32;;;2.70;99.90;;;;;;5073693;28;20095;-66
2022/01/24 02:11:28;;;;;;;24.52;10.73;;;2.70;99.90;;;;;;5073702;28;20520;-66
2022/01/24 02:13:54;;;;;;;25.83;11.10;;;2.70;99.90;;;;;;5055798;28;20123;-66
2022/01/24 02:16:40;;;;;;;23.67;10.32;;;2.60;99.90;;;;;;5073844;28;20111;-65
2022/01/24 02:19:18;;;;;;;19.02;8.93;;;2.60;99.90;;;;;;5074419;28;20060;-66
2022/01/24 02:22:40;;;;;;;15.77;7.55;;;2.60;99.90;;;;;;5074095;28;20107;-66
2022/01/24 02:24:53;;;;;;;17.20;8.32;;;2.50;99.90;;;;;;5065398;28;20036;-66
2022/01/24 02:27:22;;;;;;;13.40;6.30;;;2.20;99.90;;;;;;5073859;28;20029;-66
2022/01/24 02:32:40;;;;;;;15.00;6.90;;;2.00;99.90;;;;;;5049540;28;20082;-66
2022/01/24 02:35:07;;;;;;;11.00;5.85;;;2.00;99.90;;;;;;5055512;28;20040;-66
2022/01/24 02:37:33;;;;;;;13.60;6.85;;;1.80;99.90;;;;;;5055601;28;20078;-66
2022/01/24 02:40:11;;;;;;;17.77;6.97;;;2.00;99.90;;;;;;5055548;28;20021;-66
2022/01/24 02:48:24;;;;;;;12.23;6.15;;;1.70;99.90;;;;;;5073308;28;20387;-66
2022/01/24 02:53:35;;;;;;;13.23;6.07;;;1.70;99.90;;;;;;5073627;28;20035;-66
2022/01/24 02:56:02;;;;;;;12.10;5.43;;;1.70;99.90;;;;;;5077646;28;20021;-66
2022/01/24 02:58:28;;;;;;;12.48;5.82;;;1.60;99.90;;;;;;5077457;28;20028;-66
2022/01/24 03:00:55;;;;;;;13.70;6.00;;;1.60;99.90;;;;;;5077622;28;20024;-66
2022/01/24 03:03:22;;;;;;;11.98;5.63;;;1.50;99.90;;;;;;5077332;28;20115;-66
2022/01/24 03:05:48;;;;;;;11.15;5.03;;;1.50;99.90;;;;;;5077246;28;20044;-66
2022/01/24 03:08:15;;;;;;;12.27;5.45;;;1.50;99.90;;;;;;5059147;28;20021;-65
2022/01/24 03:10:45;;;;;;;13.32;5.45;;;1.50;99.90;;;;;;5090523;28;20080;-65
2022/01/24 03:15:48;;;;;;;12.40;5.50;;;1.50;99.90;;;;;;5097276;28;20054;-66
2022/01/24 03:18:14;;;;;;;12.32;5.78;;;1.50;99.90;;;;;;5097360;28;20028;-66
2022/01/24 03:20:40;;;;;;;12.88;6.13;;;1.50;99.90;;;;;;5097156;28;20069;-66
2022/01/24 03:23:06;;;;;;;12.02;6.30;;;1.50;99.90;;;;;;5097724;28;20028;-66
2022/01/24 03:25:32;;;;;;;11.63;5.05;;;3.20;99.90;;;;;;5097162;28;20064;-66
2022/01/24 03:27:58;;;;;;;10.82;4.85;;;3.10;99.90;;;;;;5097193;28;20024;-66
2022/01/24 03:30:25;;;;;;;11.70;5.85;;;1.50;99.90;;;;;;5095638;28;20024;-66
2022/01/24 03:32:51;;;;;;;11.05;6.03;;;1.50;99.90;;;;;;5095661;28;20044;-66
2022/01/24 03:35:17;;;;;;;10.98;5.13;;;1.70;99.90;;;;;;5096576;28;20467;-66
2022/01/24 03:37:42;;;;;;;13.98;5.78;;;1.80;99.90;;;;;;5095496;28;20032;-66
2022/01/24 03:40:08;;;;;;;11.77;5.78;;;1.50;99.90;;;;;;5096874;28;20020;-66
2022/01/24 03:42:34;;;;;;;11.45;5.95;;;1.50;99.90;;;;;;5095765;28;20084;-66
2022/01/24 03:45:04;;;;;;;13.77;5.57;;;1.50;99.90;;;;;;5095444;28;20085;-66
2022/01/24 03:49:57;;;;;;;12.98;5.00;;;1.30;99.90;;;;;;5096292;28;20020;-66
2022/01/24 03:52:23;;;;;;;11.43;4.75;;;1.30;99.90;;;;;;5096684;28;20110;-65
2022/01/24 03:54:50;;;;;;;13.27;5.22;;;1.20;99.90;;;;;;5095206;28;20036;-66
2022/01/24 03:57:19;;;;;;;18.17;5.28;;;1.90;99.90;;;;;;5096800;28;20085;-66
2022/01/24 03:59:45;;;;;;;10.77;5.30;;;1.20;99.90;;;;;;5095133;28;20449;-65
2022/01/24 04:02:13;;;;;;;10.27;4.85;;;1.10;99.90;;;;;;5096675;28;20032;-65
2022/01/24 04:04:39;;;;;;;8.48;4.90;;;1.10;99.90;;;;;;5095054;28;20463;-65
2022/01/24 04:07:05;;;;;;;12.60;6.05;;;1.10;99.90;;;;;;5095725;28;20459;-65
2022/01/24 04:09:30;;;;;;;9.77;5.40;;;1.00;99.90;;;;;;5094601;28;20055;-65
2022/01/24 04:11:58;;;;;;;17.48;6.55;;;0.90;99.90;;;;;;5096243;28;20024;-65
2022/01/24 04:22:29;;;;;;;12.32;6.50;;;0.90;99.90;;;;;;5096095;28;20451;-65
2022/01/24 04:24:59;;;;;;;12.85;6.38;;;0.80;99.90;;;;;;5095036;28;20071;-65
2022/01/24 04:27:26;;;;;;;12.15;5.45;;;0.80;99.90;;;;;;5096028;28;20024;-65
2022/01/24 04:29:51;;;;;;;15.02;6.45;;;0.80;99.90;;;;;;5096264;28;20063;-65
2022/01/24 04:32:18;;;;;;;15.43;6.70;;;0.80;99.90;;;;;;5095853;28;20044;-65
2022/01/24 04:34:44;;;;;;;14.20;6.28;;;0.80;99.90;;;;;;5095707;28;20031;-65
2022/01/24 04:37:10;;;;;;;18.40;7.05;;;1.50;99.90;;;;;;5095792;28;20036;-65
2022/01/24 04:39:35;;;;;;;11.77;5.70;;;2.90;99.90;;;;;;5094586;28;20031;-65
2022/01/24 04:42:09;;;;;;;11.98;5.72;;;0.70;99.90;;;;;;5095506;28;20080;-65
2022/01/24 04:55:01;;;;;;;20.17;7.53;;;0.70;99.90;;;;;;5095047;28;20119;-65
2022/01/24 04:57:28;;;;;;;18.13;5.97;;;0.70;99.90;;;;;;5095335;28;20094;-65
2022/01/24 04:59:57;;;;;;;15.98;6.40;;;0.70;99.90;;;;;;5095303;28;20028;-65
2022/01/24 05:02:24;;;;;;;15.38;6.47;;;0.70;99.90;;;;;;5094957;28;20020;-65
2022/01/24 05:04:52;;;;;;;17.15;6.85;;;0.70;99.90;;;;;;5093908;28;20032;-65
2022/01/24 05:07:17;;;;;;;14.15;6.50;;;0.70;99.90;;;;;;5095187;28;20024;-65
2022/01/24 05:10:01;;;;;;;14.07;6.55;;;0.70;99.90;;;;;;5093278;28;20100;-66
2022/01/24 05:23:38;;;;;;;21.38;6.82;;;0.80;99.90;;;;;;5094645;28;20047;-65
2022/01/24 05:26:06;;;;;;;18.23;7.07;;;0.80;99.90;;;;;;5093510;28;20028;-65
2022/01/24 05:28:33;;;;;;;18.63;7.35;;;0.80;99.90;;;;;;5094463;28;20024;-65
2022/01/24 05:30:59;;;;;;;18.67;7.47;;;2.50;99.90;;;;;;5094688;28;20038;-65
2022/01/24 05:33:26;;;;;;;15.88;8.00;;;1.30;99.90;;;;;;5094647;28;20102;-65
2022/01/24 05:35:51;;;;;;;21.48;8.30;;;0.80;99.90;;;;;;5093256;28;20035;-65
2022/01/24 05:38:17;;;;;;;20.70;8.27;;;1.10;99.90;;;;;;5093244;28;20028;-65
2022/01/24 05:40:45;;;;;;;15.13;7.82;;;0.80;99.90;;;;;;5093223;28;20115;-65
2022/01/24 05:43:11;;;;;;;21.60;7.68;;;1.10;99.90;;;;;;5094318;28;20361;-65
2022/01/24 05:45:37;;;;;;;19.25;7.28;;;0.90;99.90;;;;;;5094466;28;20131;-64
2022/01/24 05:48:03;;;;;;;16.30;6.47;;;0.90;99.90;;;;;;5094419;28;20036;-65
2022/01/24 05:50:29;;;;;;;16.05;7.20;;;0.80;99.90;;;;;;5094341;28;20031;-65
2022/01/24 05:52:55;;;;;;;15.50;7.38;;;1.90;99.90;;;;;;5093037;28;20031;-65
2022/01/24 05:55:21;;;;;;;18.92;8.00;;;1.60;99.90;;;;;;5092899;28;20047;-65
2022/01/24 05:57:46;;;;;;;15.57;7.38;;;0.80;99.90;;;;;;5080251;28;20032;-65
2022/01/24 06:00:14;;;;;;;15.70;6.43;;;0.80;99.90;;;;;;5083139;28;20199;-65
2022/01/24 06:02:41;;;;;;;25.40;7.57;;;0.80;99.90;;;;;;5073705;28;20054;-65
2022/01/24 06:05:07;;;;;;;13.23;7.15;;;0.80;99.90;;;;;;5075673;28;20090;-65
2022/01/24 06:07:33;;;;;;;13.70;5.72;;;0.80;99.90;;;;;;5072633;28;20025;-65
2022/01/24 06:09:59;;;;;;;13.32;5.70;;;2.70;99.90;;;;;;5063207;28;20053;-65
2022/01/24 06:12:25;;;;;;;15.07;6.38;;;0.80;99.90;;;;;;5053212;28;20518;-65
2022/01/24 06:14:51;;;;;;;14.80;5.88;;;2.30;99.90;;;;;;5053245;28;20021;-68
2022/01/24 06:17:17;;;;;;;8.05;3.83;;;0.70;99.90;;;;;;5036767;28;20036;-65
2022/01/24 06:19:44;;;;;;;15.25;4.53;;;0.70;99.90;;;;;;5036202;28;20029;-65
2022/01/24 06:22:09;;;;;;;8.65;4.05;;;0.70;99.90;;;;;;5060918;28;20108;-65
2022/01/24 06:24:35;;;;;;;9.65;4.53;;;0.90;99.90;;;;;;5051307;28;20429;-66
2022/01/24 06:27:01;;;;;;;8.18;4.47;;;0.60;99.90;;;;;;5073673;28;20104;-66
2022/01/24 06:29:26;;;;;;;16.02;5.53;;;0.60;99.90;;;;;;5073472;28;20078;-65
2022/01/24 06:31:52;;;;;;;11.18;4.38;;;2.20;99.90;;;;;;5055806;28;20066;-65
2022/01/24 06:34:18;;;;;;;12.75;5.15;;;1.10;99.90;;;;;;5073335;28;20472;-65
2022/01/24 06:36:43;;;;;;;10.38;6.00;;;0.60;99.90;;;;;;5055456;28;20489;-65
2022/01/24 06:39:11;;;;;;;13.07;5.38;;;1.70;99.90;;;;;;5055497;28;20034;-65
2022/01/24 06:41:37;;;;;;;12.48;6.00;;;0.60;99.90;;;;;;5055614;28;20063;-65
2022/01/24 06:44:03;;;;;;;16.02;7.20;;;0.60;99.90;;;;;;5055269;28;20082;-65
2022/01/24 06:46:30;;;;;;;18.63;7.95;;;0.60;99.90;;;;;;5073468;28;20035;-65
2022/01/24 06:48:56;;;;;;;17.20;7.88;;;0.70;99.90;;;;;;5073624;28;20028;-65
2022/01/24 06:51:22;;;;;;;18.00;7.30;;;0.70;99.90;;;;;;5055112;28;20021;-65
2022/01/24 06:53:48;;;;;;;15.65;7.15;;;0.70;99.90;;;;;;5073325;28;20021;-65
2022/01/24 06:56:14;;;;;;;12.80;6.70;;;0.70;99.90;;;;;;5073287;28;20050;-65
2022/01/24 06:58:41;;;;;;;15.77;6.38;;;0.70;99.90;;;;;;5073294;28;20032;-65
2022/01/24 07:01:06;;;;;;;14.23;6.90;;;2.10;99.90;;;;;;5055549;28;20475;-65
2022/01/24 07:03:33;;;;;;;16.08;7.32;;;0.80;99.90;;;;;;5073552;28;20025;-65
2022/01/24 07:05:58;;;;;;;15.45;6.53;;;0.80;99.90;;;;;;5055204;28;20028;-65
2022/01/24 07:08:24;;;;;;;11.18;6.25;;;0.80;99.90;;;;;;5055643;28;20078;-65
2022/01/24 07:10:50;;;;;;;18.83;6.78;;;0.80;99.90;;;;;;5088800;28;20052;-65
2022/01/24 07:13:17;;;;;;;19.08;6.85;;;0.80;99.90;;;;;;5093571;28;20491;-65
2022/01/24 07:15:50;;;;;;;13.52;6.95;;;1.70;99.90;;;;;;5093375;28;20142;-65
2022/01/24 07:20:56;;;;;;;15.07;7.15;;;0.90;99.90;;;;;;5093483;28;20030;-65
2022/01/24 07:23:22;;;;;;;20.33;8.05;;;0.90;99.90;;;;;;5093064;28;20078;-65
2022/01/24 07:25:48;;;;;;;16.35;7.63;;;1.60;99.90;;;;;;5093332;28;20036;-65
2022/01/24 07:28:15;;;;;;;15.27;6.90;;;0.90;99.90;;;;;;5091987;28;20024;-65
2022/01/24 07:30:40;;;;;;;22.23;7.28;;;1.20;99.90;;;;;;5093329;28;20024;-65
2022/01/24 07:33:06;;;;;;;13.15;6.57;;;1.00;99.90;;;;;;5091977;28;20031;-65
2022/01/24 07:38:16;;;;;;;15.80;6.68;;;3.00;99.90;;;;;;5093284;28;20077;-65
2022/01/24 07:40:43;;;;;;;14.43;7.28;;;1.10;99.90;;;;;;5093979;28;20024;-65
2022/01/24 07:45:37;;;;;;;16.88;7.10;;;1.10;99.90;;;;;;5096706;28;20028;-65
2022/01/24 07:48:03;;;;;;;14.35;6.60;;;1.10;99.90;;;;;;5096694;28;20024;-65
2022/01/24 07:50:30;;;;;;;10.70;5.47;;;1.10;99.90;;;;;;5095362;28;20539;-66
2022/01/24 07:52:56;;;;;;;13.00;6.53;;;1.10;99.90;;;;;;5095361;28;20024;-65
2022/01/24 07:55:22;;;;;;;14.05;6.97;;;1.20;99.90;;;;;;5096486;28;20024;-65
2022/01/24 07:57:48;;;;;;;13.48;6.05;;;1.20;99.90;;;;;;5096558;28;20032;-65
2022/01/24 08:00:14;;;;;;;12.82;6.47;;;1.20;99.90;;;;;;5094922;28;20024;-65
2022/01/24 08:02:41;;;;;;;15.07;7.60;;;1.20;99.90;;;;;;5096337;28;20101;-65
2022/01/24 08:05:08;;;;;;;15.40;6.68;;;1.20;99.90;;;;;;5095085;28;20128;-66
2022/01/24 08:07:35;;;;;;;13.50;4.80;;;1.20;99.90;;;;;;5096811;28;20024;-65
2022/01/24 08:10:01;;;;;;;13.15;5.55;;;1.20;99.90;;;;;;5084136;28;20395;-65
2022/01/24 08:12:26;;;;;;;15.73;5.75;;;1.20;99.90;;;;;;5075645;28;20434;-65
2022/01/24 08:14:52;;;;;;;15.35;6.85;;;1.10;99.90;;;;;;5075936;28;20024;-65
2022/01/24 08:17:19;;;;;;;11.40;4.85;;;1.10;99.90;;;;;;5075942;28;20555;-66
2022/01/24 08:19:45;;;;;;;9.23;4.70;;;1.10;99.90;;;;;;5057977;28;20465;-65
2022/01/24 08:22:12;;;;;;;9.13;4.47;;;1.00;99.90;;;;;;5057887;28;20067;-64
2022/01/24 08:24:38;;;;;;;10.73;4.20;;;1.00;99.90;;;;;;5057763;28;20036;-65
2022/01/24 08:27:04;;;;;;;12.15;5.35;;;1.00;99.90;;;;;;5057872;28;20027;-65
2022/01/24 08:29:30;;;;;;;15.57;4.70;;;1.00;99.90;;;;;;5075685;28;20033;-65
2022/01/24 08:31:55;;;;;;;6.38;3.50;;;1.10;99.90;;;;;;5057676;28;20021;-66
2022/01/24 08:34:21;;;;;;;16.85;5.40;;;1.10;99.90;;;;;;5075550;28;20524;-65
2022/01/24 08:36:47;;;;;;;19.20;6.57;;;1.00;99.90;;;;;;5075496;28;20028;-65
2022/01/24 08:39:13;;;;;;;10.68;5.25;;;1.00;99.90;;;;;;5075491;28;20060;-65
2022/01/24 08:41:57;;;;;;;8.95;5.30;;;1.10;99.90;;;;;;5057823;28;20020;-65
2022/01/24 08:46:49;;;;;;;10.77;4.40;;;2.70;99.90;;;;;;5075270;28;20081;-65
2022/01/24 08:49:15;;;;;;;9.48;3.53;;;1.20;99.90;;;;;;5057281;28;20027;-65
2022/01/24 08:51:42;;;;;;;10.60;3.63;;;1.10;99.90;;;;;;5074733;28;20032;-65
2022/01/24 08:54:08;;;;;;;9.80;4.22;;;1.00;99.90;;;;;;5075202;28;20511;-65
2022/01/24 08:56:36;;;;;;;11.98;4.72;;;1.00;99.90;;;;;;5075108;28;20039;-72
2022/01/24 08:59:03;;;;;;;10.80;3.90;;;1.00;99.90;;;;;;5075155;28;20146;-73
2022/01/24 09:01:29;;;;;;;10.57;4.72;;;1.00;99.90;;;;;;5074911;28;20475;-65
2022/01/24 09:03:55;;;;;;;12.82;3.80;;;1.00;99.90;;;;;;5075381;28;20059;-63
2022/01/24 09:06:22;;;;;;;11.70;4.80;;;1.30;99.90;;;;;;5075178;28;20048;-65
2022/01/24 09:08:55;;;;;;;11.63;4.95;;;1.40;99.90;;;;;;5074615;28;20032;-64
2022/01/24 09:11:29;;;;;;;13.00;4.95;;;1.20;99.90;;;;;;5056850;28;20031;-64
2022/01/24 09:13:56;;;;;;;9.98;4.95;;;1.20;99.90;;;;;;5057201;28;20380;-64
2022/01/24 09:16:21;;;;;;;10.98;5.00;;;1.10;99.90;;;;;;5057090;28;20397;-69
2022/01/24 09:18:47;;;;;;;12.23;5.03;;;1.10;99.90;;;;;;5074749;28;20055;-73
2022/01/24 09:21:13;;;;;;;18.58;5.70;;;1.10;99.90;;;;;;5074964;28;20131;-71
2022/01/24 09:23:39;;;;;;;17.95;6.22;;;1.20;99.90;;;;;;5074758;28;20024;-73
2022/01/24 09:26:04;;;;;;;13.07;5.70;;;1.20;99.90;;;;;;5074322;28;20464;-72
2022/01/24 09:28:30;;;;;;;12.30;5.53;;;1.30;99.90;;;;;;5074245;28;20373;-74
2022/01/24 09:30:57;;;;;;;13.40;5.88;;;1.70;99.90;;;;;;5056690;28;20025;-75
2022/01/24 09:33:24;;;;;;;13.43;6.47;;;1.20;99.90;;;;;;5074498;28;20099;-71
2022/01/24 09:35:51;;;;;;;14.80;6.55;;;1.20;99.90;;;;;;5074353;28;20028;-73
2022/01/24 09:38:17;;;;;;;14.70;6.60;;;1.30;99.90;;;;;;5074378;28;20033;-71
2022/01/24 09:40:43;;;;;;;21.02;7.82;;;1.80;99.90;;;;;;5056363;28;20035;-65
2022/01/24 09:43:09;;;;;;;18.50;7.90;;;1.30;99.90;;;;;;5056290;28;20021;-67
2022/01/24 09:45:36;;;;;;;16.92;7.70;;;1.50;99.90;;;;;;5056477;28;20028;-67
2022/01/24 09:48:02;;;;;;;16.45;7.70;;;1.30;99.90;;;;;;5074485;28;20021;-67
2022/01/24 09:50:28;;;;;;;19.08;8.27;;;1.30;99.90;;;;;;5056171;28;20032;-67
2022/01/24 09:52:54;;;;;;;19.02;8.27;;;1.40;99.90;;;;;;5074112;28;20090;-67
2022/01/24 09:55:21;;;;;;;20.60;8.23;;;2.60;99.90;;;;;;5056288;28;20039;-67
2022/01/24 09:57:48;;;;;;;17.90;8.82;;;1.40;99.90;;;;;;5073627;28;20036;-66
2022/01/24 10:00:17;;;;;;;18.08;8.75;;;1.30;99.90;;;;;;5073925;28;20029;-66
2022/01/24 10:02:46;;;;;;;23.48;8.77;;;1.20;99.90;;;;;;5073947;28;20032;-65
2022/01/24 10:05:14;;;;;;;;;;;1.60;99.90;;;;;;5073825;28;20039;-66
2022/01/24 10:07:41;;;;;;;20.98;8.25;;;1.20;99.90;;;;;;5073579;28;19940;-67
2022/01/24 10:10:07;;;;;;;16.88;8.35;;;2.80;99.90;;;;;;5073619;28;20519;-66
2022/01/24 10:16:24;;;;;;;22.67;9.70;;;1.30;99.90;;;;;;5073888;28;20025;-66
2022/01/24 10:18:08;;;;;;;22.85;10.30;;;1.30;99.90;;;;;;5073733;28;20085;-66
2022/01/24 10:20:37;;;;;;;22.38;10.15;;;1.70;99.90;;;;;;5055893;28;20105;-67
2022/01/24 10:23:09;;;;;;;20.55;9.50;;;1.20;99.90;;;;;;5073740;28;20043;-65
2022/01/24 10:25:52;;;;;;;30.08;11.65;;;1.00;99.90;;;;;;5055709;28;20059;-65
2022/01/24 10:28:25;;;;;;;30.70;10.75;;;0.90;99.90;;;;;;5055639;28;20368;-65
2022/01/24 10:31:17;;;;;;;25.48;10.32;;;0.80;99.90;;;;;;5055683;28;20464;-66
2022/01/24 10:34:07;;;;;;;26.92;10.63;;;0.80;99.90;;;;;;5073638;28;20025;-66
2022/01/24 10:36:36;;;;;;;28.10;11.25;;;0.80;99.90;;;;;;5073463;28;20090;-66
2022/01/24 10:39:27;;;;;;;33.90;11.48;;;0.70;99.90;;;;;;5073838;28;20469;-66
2022/01/24 10:45:12;;;;;;;28.33;10.80;;;0.80;99.90;;;;;;4972550;28;20037;-66
2022/01/24 10:47:44;;;;;;;32.22;11.75;;;1.10;99.90;;;;;;5046668;28;20131;-66
2022/01/24 10:50:17;;;;;;;26.80;12.07;;;0.90;99.90;;;;;;5073548;28;20017;-66
2022/01/24 10:52:43;;;;;;;27.73;11.32;;;0.90;99.90;;;;;;5073415;28;20031;-66
2022/01/24 10:55:24;;;;;;;30.15;11.90;;;0.90;99.90;;;;;;5055508;28;20025;-65
2022/01/24 10:57:55;;;;;;;33.97;13.25;;;1.00;99.90;;;;;;5073623;28;20496;-65
2022/01/24 11:00:27;;;;;;;31.98;11.98;;;1.00;99.90;;;;;;5073494;28;20051;-65
2022/01/24 11:02:56;;;;;;;33.90;12.57;;;1.00;99.90;;;;;;5055280;28;20055;-65
2022/01/24 11:05:27;;;;;;;29.42;11.82;;;1.00;99.90;;;;;;5073333;28;20032;-65
2022/01/24 11:07:59;;;;;;;28.50;12.50;;;1.10;99.90;;;;;;5055649;28;20056;-65
2022/01/24 11:10:27;;;;;;;33.15;13.57;;;1.20;99.90;;;;;;5072808;28;20484;-65
2022/01/24 11:12:53;;;;;;;27.35;11.70;;;1.30;99.90;;;;;;5055364;28;20055;-65
2022/01/24 11:15:24;;;;;;;29.50;12.35;;;1.30;99.90;;;;;;5074646;28;20036;-66
2022/01/24 11:17:50;;;;;;;30.10;12.30;;;1.30;99.90;;;;;;5077031;28;20164;-66
2022/01/24 11:20:18;;;;;;;32.70;12.38;;;1.30;99.90;;;;;;5058982;28;20529;-66
2022/01/24 11:22:47;;;;;;;23.83;11.87;;;1.30;99.90;;;;;;5077237;28;20065;-66
2022/01/24 11:25:14;;;;;;;24.73;10.35;;;1.30;99.90;;;;;;5077072;28;20349;-66
2022/01/24 11:27:43;;;;;;;33.00;12.20;;;1.30;99.90;;;;;;5076806;28;20033;-66
2022/01/24 11:30:19;;;;;;;31.55;13.20;;;1.40;99.90;;;;;;5076771;28;20024;-67
2022/01/24 11:32:54;;;;;;;27.15;11.98;;;1.40;99.90;;;;;;5059399;28;20115;-66
2022/01/24 11:35:35;;;;;;;24.75;11.93;;;1.40;99.90;;;;;;5076934;28;20032;-66
2022/01/24 11:38:02;;;;;;;28.65;12.52;;;1.30;99.90;;;;;;5076619;28;20464;-66
2022/01/24 11:40:45;;;;;;;28.42;12.35;;;1.40;99.90;;;;;;5076891;28;20364;-66
2022/01/24 11:43:27;;;;;;;26.25;11.35;;;1.40;99.90;;;;;;5058690;28;20032;-67
2022/01/24 11:48:38;;;;;;;27.98;11.30;;;2.70;99.90;;;;;;5075711;28;20035;-66
2022/01/24 11:51:09;;;;;;;26.15;11.38;;;1.50;99.90;;;;;;5057975;28;20383;-67
2022/01/24 11:53:53;;;;;;;30.50;12.20;;;1.60;99.90;;;;;;5075914;28;20067;-73
2022/01/24 11:56:29;;;;;;;27.30;12.10;;;1.60;99.90;;;;;;5075963;28;20029;-68
2022/01/24 11:59:18;;;;;;;29.83;12.02;;;1.70;99.90;;;;;;5075555;28;20028;-68
2022/01/24 12:01:47;;;;;;;28.88;11.88;;;1.70;99.90;;;;;;5075042;28;20020;-68
2022/01/24 12:04:13;;;;;;;;;;;1.70;99.90;;;;;;5075771;28;20516;-69
2022/01/24 12:07:25;;;;;;;26.48;10.52;;;1.70;99.90;;;;;;5075535;28;19987;-69
2022/01/24 12:09:55;;;;;;;26.98;11.55;;;1.70;99.90;;;;;;4994636;28;20054;-69
2022/01/24 12:12:36;;;;;;;29.77;11.38;;;1.70;99.90;;;;;;5014070;28;20385;-69
2022/01/24 12:15:04;;;;;;;28.42;10.85;;;1.80;99.90;;;;;;5014046;28;20045;-69
2022/01/24 12:17:50;;;;;;;30.23;12.07;;;1.80;99.90;;;;;;5013789;28;20038;-69
2022/01/24 12:20:31;;;;;;;22.38;11.38;;;1.80;99.90;;;;;;5014314;28;20045;-69
2022/01/24 12:23:19;;;;;;;30.05;13.38;;;1.80;99.90;;;;;;4997291;28;20033;-69
2022/01/24 12:26:08;;;;;;;29.02;12.18;;;1.80;99.90;;;;;;5013472;28;20030;-69
2022/01/24 12:28:42;;;;;;;23.42;11.30;;;1.80;99.90;;;;;;5013748;28;20486;-69
2022/01/24 12:31:08;;;;;;;30.48;12.30;;;1.80;99.90;;;;;;5013873;28;20433;-69
2022/01/24 12:33:43;;;;;;;23.02;11.15;;;1.80;99.90;;;;;;4997273;28;20040;-69
2022/01/24 12:36:12;;;;;;;29.92;12.23;;;1.80;99.90;;;;;;5013279;28;20042;-69
2022/01/24 12:38:42;;;;;;;28.02;11.77;;;1.80;99.90;;;;;;5013458;28;20390;-69
2022/01/24 12:41:14;;;;;;;34.42;15.25;;;1.80;99.90;;;;;;5077404;28;20404;-69
2022/01/24 12:43:54;;;;;;;31.67;12.85;;;1.80;99.90;;;;;;5095575;28;20084;-69
2022/01/24 12:46:24;;;;;;;29.98;13.15;;;1.80;99.90;;;;;;5095517;28;20024;-69
2022/01/24 12:48:50;;;;;;;26.80;13.02;;;1.70;99.90;;;;;;5096332;28;20426;-69
2022/01/24 12:51:18;;;;;;;38.15;14.27;;;1.70;99.90;;;;;;5094168;28;20024;-69
2022/01/24 12:53:44;;;;;;;28.48;12.88;;;1.70;99.90;;;;;;5094110;28;20364;-69
2022/01/24 12:56:13;;;;;;;29.25;13.77;;;1.70;99.90;;;;;;5095027;28;20138;-69
2022/01/24 12:58:46;;;;;;;27.05;12.43;;;1.70;99.90;;;;;;5085083;28;20443;-69
2022/01/24 13:01:25;;;;;;;32.28;13.90;;;1.60;99.90;;;;;;5075083;28;20029;-68
2022/01/24 13:03:57;;;;;;;30.42;14.18;;;1.60;99.90;;;;;;5075184;28;20028;-69
2022/01/24 13:06:28;;;;;;;29.77;13.77;;;1.60;99.90;;;;;;5078266;28;20035;-69
2022/01/24 13:09:00;;;;;;;43.78;13.75;;;1.60;99.90;;;;;;5072340;28;20025;-70
2022/01/24 13:11:28;;;;;;;32.78;14.20;;;1.70;99.90;;;;;;5037882;28;20107;-69
2022/01/24 13:14:32;;;;;;;30.98;13.25;;;3.50;99.90;;;;;;5055117;28;20384;-68
2022/01/24 13:25:23;;;;;;;41.15;16.55;;;1.60;99.90;;;;;;5054885;28;20079;-69
2022/01/24 13:27:52;;;;;;;38.88;16.13;;;1.70;99.90;;;;;;5071130;28;20031;-69
2022/01/24 13:30:28;;;;;;;32.53;15.55;;;1.70;99.90;;;;;;5052582;28;20040;-69
2022/01/24 13:32:58;;;;;;;36.70;16.23;;;1.80;99.90;;;;;;5037326;28;20511;-69
2022/01/24 13:35:31;;;;;;;31.98;14.57;;;1.80;99.90;;;;;;5036486;28;20128;-68
2022/01/24 13:37:59;;;;;;;36.22;15.98;;;1.80;99.90;;;;;;5054479;28;20029;-69
2022/01/24 13:43:40;;;;;;;32.97;14.45;;;1.90;99.90;;;;;;5054418;28;20420;-69
2022/01/24 13:46:26;;;;;;;35.00;16.00;;;1.90;99.90;;;;;;5070548;28;20037;-69
2022/01/24 13:48:57;;;;;;;30.60;14.00;;;1.90;99.90;;;;;;5074430;28;20038;-69
2022/01/24 13:51:32;;;;;;;34.80;16.15;;;1.90;99.90;;;;;;5074087;28;20028;-69
2022/01/24 13:53:58;;;;;;;31.60;14.15;;;1.90;99.90;;;;;;5058687;28;20100;-67
2022/01/24 13:56:27;;;;;;;35.58;15.82;;;1.90;99.90;;;;;;5054160;28;20077;-67
2022/01/24 13:59:12;;;;;;;31.40;14.38;;;1.80;99.90;;;;;;5036765;28;20412;-66
2022/01/24 14:01:59;;;;;;;32.65;14.35;;;1.80;99.90;;;;;;5065466;28;20047;-66
2022/01/24 14:04:27;;;;;;;35.13;14.80;;;1.80;99.90;;;;;;5039980;28;20032;-68
2022/01/24 14:07:02;;;;;;;29.98;14.35;;;1.80;99.90;;;;;;5072357;28;20036;-67
2022/01/24 14:09:34;;;;;;;29.77;14.05;;;1.80;99.90;;;;;;5047874;28;20123;-68
2022/01/24 14:12:01;;;;;;;33.70;14.68;;;1.80;99.90;;;;;;5072572;28;20025;-68
2022/01/24 14:14:41;;;;;;;35.60;15.70;;;1.70;99.90;;;;;;5072682;28;20031;-67
2022/01/24 14:19:39;;;;;;;34.42;15.73;;;1.70;99.90;;;;;;5073845;28;20501;-67
2022/01/24 14:22:08;;;;;;;33.10;15.52;;;1.70;99.90;;;;;;5072330;28;20070;-67
2022/01/24 14:24:49;;;;;;;35.60;15.52;;;1.70;99.90;;;;;;5072711;28;20502;-72
2022/01/24 14:27:54;;;;;;;34.85;15.85;;;1.70;99.90;;;;;;5073239;28;20036;-70
2022/01/24 14:30:27;;;;;;;34.53;14.68;;;1.60;99.90;;;;;;5073065;28;20033;-74
2022/01/24 14:33:12;;;;;;;33.33;14.30;;;1.60;99.90;;;;;;5094137;28;20029;-65
2022/01/24 14:35:59;;;;;;;34.92;16.73;;;1.60;99.90;;;;;;5091965;28;20045;-65
2022/01/24 14:38:30;;;;;;;30.52;13.88;;;1.60;99.90;;;;;;5091061;28;20035;-65
2022/01/24 14:41:01;;;;;;;31.15;14.93;;;1.60;99.90;;;;;;5092375;28;20470;-64
2022/01/24 14:46:15;;;;;;;37.50;16.27;;;1.60;99.90;;;;;;5091578;28;20086;-70
2022/01/24 14:48:52;;;;;;;30.90;14.60;;;1.60;99.90;;;;;;5092949;28;20052;-65
2022/01/24 14:51:30;;;;;;;35.47;14.07;;;1.60;99.90;;;;;;5096988;28;20459;-64
2022/01/24 14:54:01;;;;;;;28.90;14.05;;;1.60;99.90;;;;;;5087922;28;20035;-71
2022/01/24 14:56:29;;;;;;;39.08;15.18;;;1.60;99.90;;;;;;5076089;28;20032;-65
2022/01/24 14:58:54;;;;;;;32.10;15.52;;;1.50;99.90;;;;;;5077638;28;20029;-64
2022/01/24 15:01:21;;;;;;;38.80;16.10;;;1.40;99.90;;;;;;5077125;28;20138;-64
2022/01/24 15:03:49;;;;;;;36.72;16.20;;;1.40;99.90;;;;;;5075689;28;20031;-64
2022/01/24 15:06:16;;;;;;;38.73;15.30;;;1.40;99.90;;;;;;5078915;28;20108;-64
2022/01/24 15:08:46;;;;;;;37.30;16.33;;;1.40;99.90;;;;;;5076240;28;20116;-64
2022/01/24 15:11:14;;;;;;;39.67;15.73;;;1.50;99.90;;;;;;5057522;28;20028;-65
2022/01/24 15:13:54;;;;;;;38.13;15.30;;;1.50;99.90;;;;;;5039195;28;20389;-65
2022/01/24 15:16:31;;;;;;;38.53;15.77;;;1.70;99.90;;;;;;5038950;28;20036;-64